Time;durP1;ratioP1;P1;durP2;ratioP2;P2;SDS_P1;SDS_P2;PMS_P1;PMS_P2;Temp;Humidity;BMP_temperature;BMP_pressure;BME280_temperature;BME280_humidity;BME280_pressure;Samples;Min_cycle;Max_cycle;Signal;HPM_P1;HPM_P2
2024/03/07 00:00:03;;;;;;;898.63;811.87;;;3.70;99.90;;;;;;5010330;28;20959;-68
2024/03/07 00:02:30;;;;;;;887.13;801.60;;;3.60;99.90;;;;;;5011022;28;20552;-68
2024/03/07 00:04:58;;;;;;;899.43;812.57;;;3.50;99.90;;;;;;5012151;28;20461;-69
2024/03/07 00:07:25;;;;;;;895.17;808.03;;;3.50;99.90;;;;;;5012496;28;20476;-69
2024/03/07 00:09:53;;;;;;;930.07;838.37;;;3.30;99.90;;;;;;5012187;28;20452;-66
2024/03/07 00:12:20;;;;;;;913.73;820.93;;;3.40;99.90;;;;;;5012447;28;20449;-69
2024/03/07 00:14:47;;;;;;;915.00;821.40;;;3.60;99.90;;;;;;5012789;28;20453;-69
2024/03/07 00:17:14;;;;;;;916.70;821.60;;;3.70;99.90;;;;;;5012212;28;20532;-68
2024/03/07 00:19:41;;;;;;;913.93;820.33;;;3.70;99.90;;;;;;5003689;28;20462;-69
2024/03/07 00:22:09;;;;;;;907.93;818.30;;;3.60;99.90;;;;;;5005754;28;20460;-68
2024/03/07 00:24:37;;;;;;;911.07;821.80;;;3.50;99.90;;;;;;5005306;28;20453;-69
2024/03/07 00:27:04;;;;;;;917.90;827.80;;;3.40;99.90;;;;;;5009525;28;20487;-69
2024/03/07 00:29:31;;;;;;;926.40;836.23;;;3.10;99.90;;;;;;5011517;28;20455;-69
2024/03/07 00:31:58;;;;;;;898.13;807.27;;;3.10;99.90;;;;;;5011716;28;20459;-69
2024/03/07 00:34:25;;;;;;;909.07;814.97;;;3.00;99.90;;;;;;5005558;28;20481;-69
2024/03/07 00:36:52;;;;;;;892.70;799.40;;;2.90;99.90;;;;;;5012271;28;20453;-69
2024/03/07 00:39:20;;;;;;;928.27;831.83;;;2.90;99.90;;;;;;5006729;28;20448;-68
2024/03/07 00:41:47;;;;;;;933.83;836.97;;;3.10;99.90;;;;;;5007038;28;20464;-69
2024/03/07 00:44:14;;;;;;;936.60;839.60;;;3.10;99.90;;;;;;5006412;28;20475;-69
2024/03/07 00:46:41;;;;;;;934.53;838.83;;;3.10;99.90;;;;;;5012224;28;20839;-68
2024/03/07 00:49:08;;;;;;;939.63;842.20;;;3.00;99.90;;;;;;5009084;28;20842;-68
2024/03/07 00:51:35;;;;;;;930.17;830.77;;;3.00;99.90;;;;;;5011668;28;20449;-69
2024/03/07 00:54:02;;;;;;;930.17;831.13;;;2.90;99.90;;;;;;5005425;28;20985;-69
2024/03/07 00:56:30;;;;;;;938.57;840.57;;;2.90;99.90;;;;;;5009000;28;20979;-68
2024/03/07 00:58:57;;;;;;;935.60;837.50;;;3.00;99.90;;;;;;4999559;28;20461;-69
2024/03/07 01:01:24;;;;;;;939.80;841.07;;;3.00;99.90;;;;;;5005098;28;20476;-68
2024/03/07 01:03:51;;;;;;;932.53;836.13;;;3.00;99.90;;;;;;5002744;28;20473;-69
2024/03/07 01:06:19;;;;;;;957.17;859.27;;;3.00;99.90;;;;;;5008486;28;20879;-68
2024/03/07 01:08:46;;;;;;;952.80;857.50;;;2.90;99.90;;;;;;5015257;28;20483;-69
2024/03/07 01:11:13;;;;;;;955.10;859.00;;;2.80;99.90;;;;;;5015922;28;20862;-69
2024/03/07 01:13:41;;;;;;;968.07;870.93;;;2.70;99.90;;;;;;5013346;28;20874;-69
2024/03/07 01:16:09;;;;;;;960.40;864.27;;;2.60;99.90;;;;;;5015692;28;20552;-68
2024/03/07 01:18:35;;;;;;;967.63;869.73;;;2.60;99.90;;;;;;5015646;28;20932;-69
2024/03/07 01:21:03;;;;;;;961.73;866.00;;;2.50;99.90;;;;;;5016038;28;20467;-68
2024/03/07 01:23:30;;;;;;;960.07;864.73;;;2.40;99.90;;;;;;5009554;28;20480;-68
2024/03/07 01:25:57;;;;;;;959.77;862.77;;;2.30;99.90;;;;;;5014803;28;20457;-69
2024/03/07 01:28:25;;;;;;;967.63;869.17;;;2.20;99.90;;;;;;5015324;28;20567;-69
2024/03/07 01:30:53;;;;;;;972.17;870.53;;;2.10;99.90;;;;;;5015254;28;20449;-69
2024/03/07 01:33:20;;;;;;;972.77;870.07;;;2.20;99.90;;;;;;5015235;28;20477;-69
2024/03/07 01:35:47;;;;;;;971.73;871.10;;;2.20;99.90;;;;;;5006916;28;20457;-68
2024/03/07 01:38:14;;;;;;;964.77;861.93;;;2.20;99.90;;;;;;5003813;28;20450;-69
2024/03/07 01:40:41;;;;;;;961.00;854.77;;;2.20;99.90;;;;;;5010456;28;20466;-68
2024/03/07 01:43:08;;;;;;;963.00;847.63;;;2.20;99.90;;;;;;5009897;28;20837;-68
2024/03/07 01:45:37;;;;;;;966.60;836.97;;;2.40;99.90;;;;;;5004148;28;20836;-69
2024/03/07 01:48:06;;;;;;;969.47;854.10;;;2.50;99.90;;;;;;5002948;28;20536;-68
2024/03/07 01:50:33;;;;;;;992.40;870.60;;;2.60;99.90;;;;;;5006859;28;20459;-69
2024/03/07 01:53:01;;;;;;;966.60;862.60;;;2.90;99.90;;;;;;5009870;28;20485;-69
2024/03/07 01:55:28;;;;;;;950.43;846.27;;;3.00;99.90;;;;;;5005775;28;20533;-69
2024/03/07 01:58:00;;;;;;;957.23;852.73;;;3.00;99.90;;;;;;5006954;28;20495;-69
2024/03/07 02:00:27;;;;;;;944.27;840.63;;;3.30;99.90;;;;;;5011151;28;20453;-69
2024/03/07 02:02:54;;;;;;;942.87;840.73;;;3.40;99.90;;;;;;5011306;28;20477;-69
2024/03/07 02:05:23;;;;;;;941.40;821.60;;;3.50;99.90;;;;;;5014754;28;20528;-69
2024/03/07 02:07:51;;;;;;;932.37;812.27;;;3.50;99.90;;;;;;5014864;28;20874;-69
2024/03/07 02:10:18;;;;;;;913.80;813.63;;;3.60;99.90;;;;;;5006576;28;20460;-69
2024/03/07 02:12:45;;;;;;;914.03;813.37;;;3.70;99.90;;;;;;5014845;28;20512;-69
2024/03/07 02:15:13;;;;;;;909.97;796.20;;;3.80;99.90;;;;;;5006213;28;20452;-69
2024/03/07 02:17:40;;;;;;;902.77;802.70;;;4.00;99.90;;;;;;5014174;28;20457;-69
2024/03/07 02:20:10;;;;;;;889.07;790.87;;;3.90;99.90;;;;;;5014756;28;20459;-69
2024/03/07 02:22:38;;;;;;;890.70;794.00;;;4.00;99.90;;;;;;4999798;28;20839;-69
2024/03/07 02:25:06;;;;;;;890.37;780.03;;;3.90;99.90;;;;;;5009276;28;20458;-70
2024/03/07 02:27:33;;;;;;;864.17;769.80;;;4.00;99.90;;;;;;4994675;28;20511;-70
2024/03/07 02:30:01;;;;;;;860.90;765.60;;;3.90;99.90;;;;;;5007647;28;20461;-69
2024/03/07 02:32:28;;;;;;;875.60;779.70;;;4.10;99.90;;;;;;5006392;28;20481;-69
2024/03/07 02:34:55;;;;;;;870.83;777.70;;;4.10;99.90;;;;;;5006387;28;20457;-70
2024/03/07 02:37:22;;;;;;;872.03;777.83;;;3.90;99.90;;;;;;5014632;28;20552;-70
2024/03/07 02:39:50;;;;;;;872.90;778.07;;;4.00;99.90;;;;;;5014336;28;20464;-69
2024/03/07 02:42:17;;;;;;;893.67;799.60;;;3.90;99.90;;;;;;5014041;28;20932;-70
2024/03/07 02:44:44;;;;;;;874.37;778.80;;;3.90;99.90;;;;;;5013820;28;20957;-69
2024/03/07 02:47:11;;;;;;;861.50;768.40;;;3.60;99.90;;;;;;5009088;28;20461;-70
2024/03/07 02:49:38;;;;;;;871.33;776.33;;;3.50;99.90;;;;;;5004117;28;20495;-69
2024/03/07 02:52:07;;;;;;;911.27;816.20;;;3.20;99.90;;;;;;5014153;28;20459;-70
2024/03/07 02:54:34;;;;;;;923.53;828.80;;;3.10;99.90;;;;;;5013527;28;20476;-70
2024/03/07 02:57:02;;;;;;;924.13;826.83;;;2.80;99.90;;;;;;4995230;28;20453;-70
2024/03/07 02:59:29;;;;;;;931.43;833.30;;;2.80;99.90;;;;;;5008501;28;20468;-68
2024/03/07 03:01:56;;;;;;;895.63;800.23;;;2.70;99.90;;;;;;5014250;28;20455;-70
2024/03/07 03:04:23;;;;;;;885.23;789.57;;;2.50;99.90;;;;;;5009538;28;20469;-69
2024/03/07 03:06:50;;;;;;;901.83;803.10;;;2.30;99.90;;;;;;5009900;28;20453;-69
2024/03/07 03:09:18;;;;;;;911.87;814.77;;;2.20;99.90;;;;;;5013601;28;20473;-69
2024/03/07 03:11:45;;;;;;;919.67;823.33;;;2.10;99.90;;;;;;5003610;28;20460;-70
2024/03/07 03:14:13;;;;;;;918.53;822.67;;;2.00;99.90;;;;;;5011630;28;20855;-70
2024/03/07 03:16:43;;;;;;;934.07;836.80;;;2.00;99.90;;;;;;5004969;28;20465;-70
2024/03/07 03:19:09;;;;;;;914.53;816.83;;;1.90;99.90;;;;;;5008531;28;20449;-69
2024/03/07 03:21:37;;;;;;;926.37;829.53;;;1.80;99.90;;;;;;5011058;28;20459;-70
2024/03/07 03:24:04;;;;;;;951.33;853.43;;;1.70;99.90;;;;;;5008671;28;20482;-70
2024/03/07 03:26:32;;;;;;;960.30;860.67;;;1.60;99.90;;;;;;5012066;28;20451;-69
2024/03/07 03:28:58;;;;;;;959.93;859.77;;;1.50;99.90;;;;;;4993920;28;20899;-69
2024/03/07 03:31:27;;;;;;;961.13;860.90;;;1.50;99.90;;;;;;4994022;28;20461;-69
2024/03/07 03:33:53;;;;;;;950.10;852.37;;;1.40;99.90;;;;;;4996812;28;20479;-69
2024/03/07 03:36:20;;;;;;;946.77;846.00;;;1.50;99.90;;;;;;5012676;28;20461;-70
2024/03/07 03:38:47;;;;;;;942.43;824.00;;;1.40;99.90;;;;;;5013228;28;20463;-69
2024/03/07 03:41:16;;;;;;;891.27;792.57;;;1.40;99.90;;;;;;5007323;28;20460;-69
2024/03/07 03:43:43;;;;;;;910.17;811.83;;;1.40;99.90;;;;;;4994635;28;20481;-72
2024/03/07 03:46:11;;;;;;;904.47;805.70;;;1.30;99.90;;;;;;4993213;28;20572;-69
2024/03/07 03:48:39;;;;;;;921.10;815.13;;;1.30;99.90;;;;;;4992861;28;20480;-69
2024/03/07 03:51:08;;;;;;;895.47;797.63;;;1.20;99.90;;;;;;5006523;28;20461;-70
2024/03/07 03:53:35;;;;;;;911.90;815.00;;;1.30;99.90;;;;;;5012501;28;20844;-70
2024/03/07 03:56:04;;;;;;;905.90;811.70;;;1.30;99.90;;;;;;5005660;28;20457;-69
2024/03/07 03:58:31;;;;;;;908.80;815.93;;;1.40;99.90;;;;;;5013794;28;20456;-70
2024/03/07 04:00:59;;;;;;;907.10;810.80;;;1.30;99.90;;;;;;4995386;28;20464;-71
2024/03/07 04:03:26;;;;;;;915.40;816.33;;;1.20;99.90;;;;;;5014888;28;21001;-69
2024/03/07 04:05:55;;;;;;;895.90;797.63;;;1.20;99.90;;;;;;4994803;28;20461;-70
2024/03/07 04:08:21;;;;;;;907.03;800.87;;;1.10;99.90;;;;;;5001965;28;20480;-70
2024/03/07 04:10:48;;;;;;;913.53;816.13;;;1.10;99.90;;;;;;5013049;28;20457;-69
2024/03/07 04:13:15;;;;;;;909.73;809.50;;;1.00;99.90;;;;;;5012830;28;20482;-69
2024/03/07 04:15:42;;;;;;;906.33;810.17;;;1.20;99.90;;;;;;5012852;28;20457;-70
2024/03/07 04:18:08;;;;;;;904.70;804.67;;;1.10;99.90;;;;;;5012296;28;20467;-69
2024/03/07 04:20:34;;;;;;;904.33;807.17;;;1.10;99.90;;;;;;5012342;28;20463;-73
2024/03/07 04:23:03;;;;;;;916.53;806.23;;;1.10;99.90;;;;;;5000543;28;20868;-75
2024/03/07 04:25:31;;;;;;;903.60;806.20;;;1.10;99.90;;;;;;5009479;28;20265;-69
2024/03/07 04:27:58;;;;;;;901.13;802.73;;;1.10;99.90;;;;;;5013214;28;20480;-68
2024/03/07 04:30:25;;;;;;;897.70;799.37;;;1.00;99.90;;;;;;5005580;28;20517;-70
2024/03/07 04:32:52;;;;;;;903.87;806.20;;;1.10;99.90;;;;;;4995807;28;20899;-70
2024/03/07 04:35:19;;;;;;;913.53;813.75;;;1.10;99.90;;;;;;5006078;28;20456;-69
2024/03/07 04:37:45;;;;;;;912.53;813.03;;;1.10;99.90;;;;;;5012064;28;20684;-70
2024/03/07 04:40:18;;;;;;;909.20;808.93;;;1.10;99.90;;;;;;5012553;28;20832;-69
2024/03/07 04:42:46;;;;;;;918.87;822.77;;;1.00;99.90;;;;;;5014483;28;20527;-69
2024/03/07 04:45:13;;;;;;;895.43;800.73;;;1.00;99.90;;;;;;5001360;28;21375;-69
2024/03/07 04:47:41;;;;;;;909.00;814.03;;;0.90;99.90;;;;;;4996189;28;20457;-70
2024/03/07 04:50:10;;;;;;;893.10;805.53;;;0.80;99.90;;;;;;5001076;28;20458;-70
2024/03/07 04:52:37;;;;;;;896.50;808.17;;;0.70;99.90;;;;;;5007355;28;20523;-70
2024/03/07 04:55:05;;;;;;;865.87;785.70;;;0.80;99.90;;;;;;5015579;28;20203;-70
2024/03/07 04:57:33;;;;;;;856.10;776.60;;;0.70;99.90;;;;;;5013487;28;20548;-70
2024/03/07 04:59:59;;;;;;;863.17;784.80;;;0.70;99.90;;;;;;5003736;28;20456;-70
2024/03/07 05:02:26;;;;;;;874.40;792.73;;;0.70;99.90;;;;;;5015089;28;20450;-70
2024/03/07 05:04:53;;;;;;;850.37;773.30;;;0.70;99.90;;;;;;5015620;28;20469;-70
2024/03/07 05:07:20;;;;;;;852.97;775.17;;;0.70;99.90;;;;;;5008021;28;20463;-70
2024/03/07 05:09:46;;;;;;;805.77;729.10;;;0.60;99.90;;;;;;4999718;28;20489;-70
2024/03/07 05:12:13;;;;;;;823.50;747.63;;;0.60;99.90;;;;;;5006682;28;20464;-70
2024/03/07 05:14:41;;;;;;;816.42;740.90;;;0.60;99.90;;;;;;5014055;28;20452;-70
2024/03/07 05:17:09;;;;;;;831.20;753.30;;;0.50;99.90;;;;;;5014669;28;20211;-70
2024/03/07 05:19:36;;;;;;;818.23;741.00;;;0.60;99.90;;;;;;5007871;28;20454;-70
2024/03/07 05:22:04;;;;;;;794.42;718.25;;;0.50;99.90;;;;;;5011187;28;20480;-70
2024/03/07 05:24:34;;;;;;;803.57;725.73;;;0.50;99.90;;;;;;5008126;28;20221;-65
2024/03/07 05:27:01;;;;;;;822.03;745.10;;;0.60;99.90;;;;;;5005732;28;20486;-70
2024/03/07 05:29:28;;;;;;;857.97;779.13;;;0.70;99.90;;;;;;5010122;28;20490;-70
2024/03/07 05:31:56;;;;;;;878.37;798.27;;;0.70;99.90;;;;;;5015762;28;20462;-69
2024/03/07 05:34:23;;;;;;;847.93;771.83;;;0.80;99.90;;;;;;5006204;28;20485;-69
2024/03/07 05:36:50;;;;;;;831.97;756.43;;;0.70;99.90;;;;;;5014384;28;20457;-70
2024/03/07 05:39:18;;;;;;;867.93;789.13;;;0.60;99.90;;;;;;5013010;28;20451;-70
2024/03/07 05:41:45;;;;;;;888.07;806.63;;;0.50;99.90;;;;;;5003517;28;20456;-70
2024/03/07 05:44:12;;;;;;;887.85;800.78;;;0.60;99.90;;;;;;5008025;28;20484;-70
2024/03/07 05:46:41;;;;;;;891.67;802.37;;;0.70;99.90;;;;;;5011510;28;20209;-70
2024/03/07 05:49:09;;;;;;;892.50;804.57;;;0.70;99.90;;;;;;5013561;28;20560;-73
2024/03/07 05:51:36;;;;;;;886.23;798.33;;;0.70;99.90;;;;;;5014997;28;20465;-68
2024/03/07 05:54:06;;;;;;;890.60;803.90;;;0.70;99.90;;;;;;5012449;28;20490;-69
2024/03/07 05:56:35;;;;;;;891.67;802.57;;;0.70;99.90;;;;;;5013601;28;20454;-70
2024/03/07 05:59:05;;;;;;;898.47;805.40;;;0.80;99.90;;;;;;5008480;28;20462;-69
2024/03/07 06:01:32;;;;;;;905.50;812.30;;;0.90;99.90;;;;;;5014235;28;20519;-70
2024/03/07 06:03:59;;;;;;;872.22;780.92;;;0.90;99.90;;;;;;5006663;28;20859;-70
2024/03/07 06:06:28;;;;;;;861.73;772.23;;;0.80;99.90;;;;;;5006122;28;20206;-69
2024/03/07 06:08:55;;;;;;;867.00;779.83;;;0.90;99.90;;;;;;5005889;28;20566;-70
2024/03/07 06:11:22;;;;;;;875.53;786.83;;;0.90;99.90;;;;;;5009566;28;20460;-70
2024/03/07 06:13:49;;;;;;;875.90;784.47;;;0.90;99.90;;;;;;5010729;28;20473;-70
2024/03/07 06:16:16;;;;;;;878.77;786.03;;;0.90;99.90;;;;;;5008174;28;20463;-70
2024/03/07 06:18:43;;;;;;;886.03;792.43;;;0.90;99.90;;;;;;5011935;28;20460;-69
2024/03/07 06:21:09;;;;;;;877.00;784.43;;;0.90;99.90;;;;;;5007146;28;20469;-70
2024/03/07 06:23:38;;;;;;;874.20;783.70;;;0.90;99.90;;;;;;4998885;28;20479;-70
2024/03/07 06:26:12;;;;;;;873.57;780.53;;;0.90;99.90;;;;;;5007944;28;20456;-70
2024/03/07 06:28:39;;;;;;;872.30;781.40;;;0.80;99.90;;;;;;5013583;28;20853;-70
2024/03/07 06:31:07;;;;;;;870.07;782.37;;;0.80;99.90;;;;;;5008745;28;20511;-70
2024/03/07 06:33:34;;;;;;;880.87;787.77;;;0.90;99.90;;;;;;5005094;28;20473;-69
2024/03/07 06:36:01;;;;;;;874.13;781.37;;;1.00;99.90;;;;;;5005326;28;20454;-70
2024/03/07 06:38:28;;;;;;;878.93;785.13;;;0.90;99.90;;;;;;5010477;28;20449;-70
2024/03/07 06:40:57;;;;;;;880.63;791.83;;;1.00;99.90;;;;;;5008637;28;20461;-70
2024/03/07 06:43:23;;;;;;;896.93;801.87;;;1.10;99.90;;;;;;4993519;28;20474;-70
2024/03/07 06:45:50;;;;;;;894.33;798.33;;;1.20;99.90;;;;;;4992832;28;20549;-70
2024/03/07 06:48:17;;;;;;;889.27;793.30;;;1.20;99.90;;;;;;5011178;28;20460;-70
2024/03/07 06:50:44;;;;;;;881.67;785.50;;;1.30;99.90;;;;;;5012545;28;20480;-70
2024/03/07 06:53:11;;;;;;;887.93;791.87;;;1.50;99.90;;;;;;5006994;28;20791;-70
2024/03/07 06:55:38;;;;;;;898.47;800.13;;;1.60;99.90;;;;;;5012012;28;20551;-70
2024/03/07 06:58:06;;;;;;;898.60;800.33;;;1.40;99.90;;;;;;5012789;28;20461;-70
2024/03/07 07:00:35;;;;;;;904.83;807.47;;;1.50;99.90;;;;;;5012168;28;20460;-69
2024/03/07 07:03:04;;;;;;;919.43;825.33;;;1.50;99.90;;;;;;5012586;28;20475;-70
2024/03/07 07:05:31;;;;;;;927.17;831.33;;;1.50;99.90;;;;;;5011832;28;20835;-70
2024/03/07 07:07:58;;;;;;;948.10;852.27;;;1.40;99.90;;;;;;5012755;28;20466;-70
2024/03/07 07:10:25;;;;;;;1004.33;903.33;;;1.50;99.90;;;;;;5012290;28;20491;-70
2024/03/07 07:12:54;;;;;;;1039.37;936.57;;;1.50;99.90;;;;;;4995999;28;20487;-69
2024/03/07 07:15:22;;;;;;;1064.10;960.93;;;1.60;99.90;;;;;;5011919;28;20519;-70
2024/03/07 07:17:50;;;;;;;1098.60;993.00;;;1.80;99.90;;;;;;5012651;28;20453;-70
2024/03/07 07:20:18;;;;;;;1147.20;999.90;;;1.70;99.90;;;;;;4998073;28;20967;-70
2024/03/07 07:22:47;;;;;;;1162.60;999.90;;;1.80;99.90;;;;;;4992823;28;20492;-70
2024/03/07 07:25:15;;;;;;;1177.33;999.90;;;1.90;99.90;;;;;;5006605;28;20839;-70
2024/03/07 07:27:45;;;;;;;1208.63;999.90;;;2.00;99.90;;;;;;4993794;28;20479;-70
2024/03/07 07:30:13;;;;;;;1204.93;999.90;;;2.10;99.90;;;;;;4992899;28;20492;-70
2024/03/07 07:32:42;;;;;;;1219.23;999.90;;;2.30;99.90;;;;;;4993904;28;20496;-70
2024/03/07 07:35:11;;;;;;;1209.70;999.90;;;2.50;99.90;;;;;;5011954;28;20452;-70
2024/03/07 07:37:38;;;;;;;1192.17;999.90;;;2.80;99.90;;;;;;5003041;28;20460;-70
2024/03/07 07:40:08;;;;;;;1177.40;999.90;;;3.00;99.90;;;;;;4992468;28;20862;-70
2024/03/07 07:42:38;;;;;;;1185.60;999.90;;;3.20;99.90;;;;;;4992942;28;20989;-70
2024/03/07 07:45:07;;;;;;;1176.47;999.90;;;3.30;99.90;;;;;;5012014;28;20453;-71
2024/03/07 07:47:37;;;;;;;1163.03;999.90;;;3.50;99.90;;;;;;5003238;28;20458;-71
2024/03/07 07:50:12;;;;;;;1161.70;999.90;;;3.50;99.90;;;;;;4992058;28;20486;-70
2024/03/07 07:52:41;;;;;;;1170.30;999.90;;;3.60;99.90;;;;;;5009156;28;20483;-70
2024/03/07 07:55:14;;;;;;;1167.37;999.90;;;3.80;99.90;;;;;;5011771;28;20456;-70
2024/03/07 07:57:44;;;;;;;1158.77;999.90;;;3.80;99.90;;;;;;5002327;28;20461;-70
2024/03/07 08:00:21;;;;;;;1173.73;999.90;;;3.90;99.90;;;;;;4997869;28;20475;-70
2024/03/07 08:02:51;;;;;;;1177.93;999.90;;;3.90;99.90;;;;;;5011806;28;20472;-70
2024/03/07 08:05:22;;;;;;;1163.93;999.90;;;4.00;99.90;;;;;;5011494;28;20503;-70
2024/03/07 08:07:50;;;;;;;1154.73;999.90;;;4.10;99.90;;;;;;5003926;28;20954;-70
2024/03/07 08:10:18;;;;;;;1145.20;999.90;;;4.30;99.90;;;;;;5011824;28;20491;-70
2024/03/07 08:12:45;;;;;;;1137.23;999.90;;;4.50;99.90;;;;;;5003628;28;20573;-70
2024/03/07 08:15:13;;;;;;;1126.30;999.90;;;4.60;99.90;;;;;;5006405;28;20906;-70
2024/03/07 08:17:44;;;;;;;1106.53;999.90;;;4.80;99.90;;;;;;5012340;28;20975;-70
2024/03/07 08:20:12;;;;;;;1078.27;986.57;;;4.80;99.90;;;;;;4996324;28;20886;-70
2024/03/07 08:22:41;;;;;;;1032.37;950.17;;;5.00;99.90;;;;;;4996101;28;20875;-70
2024/03/07 08:25:10;;;;;;;1040.13;956.13;;;5.10;99.90;;;;;;5009042;28;20536;-70
2024/03/07 08:27:37;;;;;;;919.53;852.23;;;5.30;99.90;;;;;;4999574;28;20513;-70
2024/03/07 08:30:06;;;;;;;784.33;728.97;;;5.40;99.90;;;;;;5014470;28;20486;-70
2024/03/07 08:32:36;;;;;;;665.50;620.87;;;5.50;99.90;;;;;;5014878;28;20969;-70
2024/03/07 08:35:06;;;;;;;593.83;558.60;;;5.60;99.90;;;;;;5014892;28;20453;-70
2024/03/07 08:37:34;;;;;;;539.47;513.15;;;5.50;99.90;;;;;;5015060;28;20938;-70
2024/03/07 08:40:06;;;;;;;513.77;490.33;;;5.60;99.90;;;;;;5015210;28;20488;-70
2024/03/07 08:42:33;;;;;;;303.13;289.43;;;5.70;99.90;;;;;;5014752;28;20473;-70
2024/03/07 08:45:01;;;;;;;51.33;45.83;;;5.80;99.90;;;;;;5007635;28;20456;-71
2024/03/07 08:47:28;;;;;;;40.00;28.57;;;5.90;99.90;;;;;;5015609;28;20464;-70
2024/03/07 08:49:55;;;;;;;42.60;25.47;;;6.00;99.90;;;;;;5015452;28;20535;-70
2024/03/07 08:52:22;;;;;;;35.23;22.20;;;6.20;99.90;;;;;;5008385;28;20465;-70
2024/03/07 08:54:48;;;;;;;34.27;22.67;;;6.30;99.90;;;;;;5014196;28;20461;-67
2024/03/07 08:57:18;;;;;;;40.87;23.30;;;6.30;96.70;;;;;;5000987;28;20461;-68
2024/03/07 08:59:45;;;;;;;33.10;20.90;;;6.40;96.70;;;;;;4995465;28;20934;-68
2024/03/07 09:02:12;;;;;;;29.40;18.77;;;6.60;96.70;;;;;;5009525;28;20966;-67
2024/03/07 09:04:39;;;;;;;33.80;20.70;;;6.80;96.70;;;;;;5005640;28;20465;-68
2024/03/07 09:07:06;;;;;;;37.07;21.70;;;7.00;96.70;;;;;;4995481;28;20469;-68
2024/03/07 09:09:33;;;;;;;33.23;19.60;;;7.40;97.00;;;;;;4995797;28;20485;-68
2024/03/07 09:12:01;;;;;;;30.60;18.87;;;7.60;94.50;;;;;;5015245;28;20499;-68
2024/03/07 09:14:29;;;;;;;27.73;17.60;;;7.80;82.20;;;;;;5015265;28;20473;-68
2024/03/07 09:16:56;;;;;;;26.83;16.47;;;8.00;76.20;;;;;;5011477;28;20460;-68
2024/03/07 09:19:24;;;;;;;26.57;19.03;;;8.30;73.10;;;;;;4995398;28;20521;-68
2024/03/07 09:21:52;;;;;;;31.07;19.10;;;8.60;69.20;;;;;;4995617;28;20465;-68
2024/03/07 09:24:21;;;;;;;23.90;15.53;;;8.70;60.80;;;;;;5001884;28;20509;-68
2024/03/07 09:26:48;;;;;;;25.77;17.20;;;8.80;52.50;;;;;;5014241;28;20456;-67
2024/03/07 09:29:15;;;;;;;30.57;17.43;;;9.10;52.80;;;;;;5014800;28;20507;-68
2024/03/07 09:31:43;;;;;;;26.40;15.77;;;9.40;53.00;;;;;;5013189;28;21020;-68
2024/03/07 09:34:10;;;;;;;23.43;15.30;;;9.60;44.40;;;;;;4995204;28;20622;-68
2024/03/07 09:36:37;;;;;;;21.77;15.93;;;9.90;44.80;;;;;;4994769;28;20462;-68
2024/03/07 09:39:04;;;;;;;26.23;16.00;;;9.50;35.60;;;;;;5008255;28;20492;-67
2024/03/07 09:41:31;;;;;;;23.80;15.27;;;9.60;42.10;;;;;;5015065;28;21030;-68
2024/03/07 09:44:00;;;;;;;24.20;15.10;;;9.90;28.70;;;;;;5014847;28;20534;-68
2024/03/07 09:46:28;;;;;;;21.60;14.57;;;10.10;27.10;;;;;;4998585;28;20512;-68
2024/03/07 09:48:57;;;;;;;20.83;14.70;;;10.30;27.20;;;;;;5006159;28;20471;-68
2024/03/07 09:51:25;;;;;;;22.37;14.50;;;10.70;27.50;;;;;;5014121;28;20531;-68
2024/03/07 09:53:54;;;;;;;21.30;15.33;;;10.30;27.20;;;;;;5011506;28;20508;-68
2024/03/07 09:56:22;;;;;;;21.23;14.33;;;9.90;27.70;;;;;;4994726;28;20487;-68
2024/03/07 09:58:51;;;;;;;23.43;15.33;;;9.80;27.60;;;;;;5005305;28;20468;-68
2024/03/07 10:01:20;;;;;;;25.17;16.77;;;10.00;27.00;;;;;;5014525;28;20453;-68
2024/03/07 10:03:49;;;;;;;22.63;15.33;;;10.50;27.30;;;;;;5011603;28;20480;-68
2024/03/07 10:06:17;;;;;;;28.93;17.90;;;10.50;26.90;;;;;;4994352;28;20556;-68
2024/03/07 10:08:45;;;;;;;24.70;16.00;;;10.60;27.40;;;;;;5012540;28;20475;-68
2024/03/07 10:11:11;;;;;;;24.80;15.77;;;10.30;27.20;;;;;;5014076;28;21023;-68
2024/03/07 10:13:38;;;;;;;28.27;16.47;;;10.10;27.00;;;;;;5012814;28;20481;-68
2024/03/07 10:16:06;;;;;;;27.13;17.93;;;9.70;27.50;;;;;;4994527;28;20516;-68
2024/03/07 10:18:42;;;;;;;28.90;16.60;;;9.50;27.40;;;;;;4994517;28;20973;-68
2024/03/07 10:21:09;;;;;;;38.93;17.60;;;9.00;27.10;;;;;;5008275;28;20456;-68
2024/03/07 10:23:38;;;;;;;31.50;17.27;;;8.90;27.00;;;;;;5014000;28;20496;-68
2024/03/07 10:26:05;;;;;;;30.60;16.33;;;8.90;34.80;;;;;;5001095;28;20938;-67
2024/03/07 10:28:33;;;;;;;29.53;17.97;;;9.10;34.50;;;;;;5010867;28;20471;-68
2024/03/07 10:31:01;;;;;;;28.73;16.73;;;9.40;27.50;;;;;;5010001;28;20485;-68
2024/03/07 10:33:32;;;;;;;27.27;17.27;;;9.30;33.50;;;;;;5010487;28;21038;-68
2024/03/07 10:36:00;;;;;;;28.60;16.53;;;9.20;27.20;;;;;;5006800;28;20453;-68
2024/03/07 10:38:27;;;;;;;31.43;17.40;;;9.30;27.30;;;;;;4999445;28;20827;-67
2024/03/07 10:40:56;;;;;;;29.53;17.37;;;9.00;27.10;;;;;;5006996;28;20448;-68
2024/03/07 10:43:26;;;;;;;30.10;19.20;;;9.00;27.10;;;;;;5015314;28;20475;-68
2024/03/07 10:45:56;;;;;;;26.27;16.80;;;9.10;27.10;;;;;;5013601;28;20835;-68
2024/03/07 10:48:30;;;;;;;29.43;18.67;;;9.80;27.60;;;;;;5013430;28;20488;-68
2024/03/07 10:51:09;;;;;;;28.80;18.57;;;10.60;27.40;;;;;;5005965;28;20487;-68
2024/03/07 10:53:42;;;;;;;30.60;17.63;;;11.50;20.70;;;;;;5012301;28;20477;-68
2024/03/07 10:56:24;;;;;;;26.37;16.53;;;11.60;13.70;;;;;;5007711;28;20441;-69
2024/03/07 10:59:00;;;;;;;26.53;17.10;;;11.80;6.30;;;;;;5013053;28;20559;-68
2024/03/07 11:01:39;;;;;;;24.83;16.27;;;12.20;13.80;;;;;;5097709;27;20546;-68
2024/03/07 11:04:07;;;;;;;25.63;17.00;;;12.80;7.10;;;;;;5075875;28;20470;-68
2024/03/07 11:06:34;;;;;;;24.77;15.70;;;13.40;1.00;;;;;;5085845;28;20461;-68
2024/03/07 11:09:09;;;;;;;24.63;16.60;;;13.30;1.00;;;;;;5085067;28;20455;-68
2024/03/07 11:11:37;;;;;;;31.60;16.40;;;13.00;1.00;;;;;;5078185;28;20502;-69
2024/03/07 11:14:04;;;;;;;23.97;16.50;;;13.10;1.00;;;;;;5076099;28;20471;-68
2024/03/07 11:16:33;;;;;;;25.90;17.27;;;13.90;1.00;;;;;;5085373;28;20445;-68
2024/03/07 11:19:21;;;;;;;26.03;17.23;;;14.20;1.00;;;;;;5088938;28;20445;-68
2024/03/07 11:21:48;;;;;;;25.50;16.00;;;14.30;1.00;;;;;;5072790;28;20446;-68
2024/03/07 11:24:25;;;;;;;24.20;15.93;;;14.30;1.00;;;;;;5089028;28;20473;-69
2024/03/07 11:26:53;;;;;;;22.87;15.60;;;14.50;1.00;;;;;;5088765;28;20506;-68
2024/03/07 11:29:43;;;;;;;23.10;16.23;;;13.80;1.00;;;;;;5073738;28;20538;-68
2024/03/07 11:32:20;;;;;;;28.13;16.13;;;13.80;1.00;;;;;;5082797;28;20454;-69
2024/03/07 11:34:50;;;;;;;27.30;17.80;;;14.70;1.00;;;;;;5072075;28;20451;-69
2024/03/07 11:37:22;;;;;;;25.93;18.43;;;15.00;1.00;;;;;;5088863;28;20915;-68
2024/03/07 11:39:53;;;;;;;26.03;18.47;;;14.30;1.00;;;;;;5086284;28;20486;-68
2024/03/07 11:42:26;;;;;;;27.87;18.00;;;13.10;1.00;;;;;;5075238;28;20453;-68
2024/03/07 11:44:55;;;;;;;26.23;16.73;;;13.30;1.00;;;;;;5077000;28;20958;-68
2024/03/07 11:47:24;;;;;;;23.70;15.80;;;12.20;1.00;;;;;;5069194;28;20458;-68
2024/03/07 11:49:52;;;;;;;28.10;17.40;;;11.70;1.00;;;;;;5088081;28;20464;-67
2024/03/07 11:52:20;;;;;;;25.43;17.13;;;11.60;1.00;;;;;;5081660;28;20930;-67
2024/03/07 11:54:47;;;;;;;29.33;18.37;;;11.30;5.90;;;;;;5067489;28;20646;-67
2024/03/07 11:57:16;;;;;;;24.20;16.90;;;11.20;5.90;;;;;;5084402;28;20456;-67
2024/03/07 11:59:45;;;;;;;28.00;19.00;;;11.40;6.00;;;;;;5088039;28;20492;-68
2024/03/07 12:02:13;;;;;;;25.60;15.77;;;11.40;6.70;;;;;;5088189;28;20460;-68
2024/03/07 12:04:41;;;;;;;28.97;16.53;;;12.20;5.60;;;;;;5077702;28;20454;-68
2024/03/07 12:07:10;;;;;;;26.33;16.33;;;13.10;1.00;;;;;;5076309;28;20463;-67
2024/03/07 12:09:38;;;;;;;25.30;16.00;;;13.40;1.00;;;;;;5077009;28;20449;-68
2024/03/07 12:12:05;;;;;;;26.17;14.97;;;13.70;1.00;;;;;;5074722;28;20461;-67
2024/03/07 12:14:33;;;;;;;23.80;14.60;;;13.90;1.00;;;;;;5053861;28;20471;-68
2024/03/07 12:17:01;;;;;;;26.50;18.00;;;13.80;1.00;;;;;;5067009;28;20457;-68
2024/03/07 12:19:28;;;;;;;26.30;15.67;;;15.10;1.00;;;;;;5058513;28;20989;-67
2024/03/07 12:21:58;;;;;;;24.80;16.53;;;15.80;1.00;;;;;;5071022;28;20538;-67
2024/03/07 12:24:26;;;;;;;23.50;15.30;;;16.00;1.00;;;;;;5054460;28;20478;-67